createdAt,value
2023-03-17T00:02:16.684Z,98386.84
2023-03-17T00:04:50.268Z,98385.94
2023-03-17T00:07:18.194Z,98392.22
2023-03-17T00:09:45.427Z,98398.53
2023-03-17T00:12:13.052Z,98382.56
2023-03-17T00:14:40.160Z,98375.84
2023-03-17T00:17:10.159Z,98377.50
2023-03-17T00:19:37.695Z,98374.09
2023-03-17T00:22:10.189Z,98384.69
2023-03-17T00:24:37.448Z,98386.47
2023-03-17T00:27:14.459Z,98389.50
2023-03-17T00:29:45.576Z,98380.53
2023-03-17T00:32:18.056Z,98382.66
2023-03-17T00:34:45.501Z,98379.31
2023-03-17T00:37:13.192Z,98377.53
2023-03-17T00:39:40.431Z,98384.75
2023-03-17T00:42:14.195Z,98375.00
2023-03-17T00:44:41.520Z,98371.34
2023-03-17T00:47:11.989Z,98368.44
2023-03-17T00:49:39.644Z,98367.00
2023-03-17T00:52:10.398Z,98358.75
2023-03-17T00:54:37.267Z,98356.59
2023-03-17T00:57:04.188Z,98350.19
2023-03-17T00:59:42.698Z,98343.13
2023-03-17T01:03:33.374Z,98345.06
2023-03-17T01:06:02.973Z,98348.13
2023-03-17T01:08:31.496Z,98351.16
2023-03-17T01:10:59.781Z,98345.13
2023-03-17T01:13:27.683Z,98331.81
2023-03-17T01:15:57.323Z,98323.75
2023-03-17T01:18:24.800Z,98329.66
2023-03-17T01:20:53.431Z,98322.59
2023-03-17T01:23:26.090Z,98316.56
2023-03-17T01:25:53.662Z,98314.00
2023-03-17T01:28:21.105Z,98318.09
2023-03-17T01:30:49.605Z,98314.44
2023-03-17T01:33:17.825Z,98308.66
2023-03-17T01:35:45.848Z,98302.81
2023-03-17T01:38:14.079Z,98310.66
2023-03-17T01:40:48.328Z,98304.25
2023-03-17T01:43:17.529Z,98305.75
2023-03-17T01:46:06.719Z,98306.81
2023-03-17T01:48:40.811Z,98299.50
2023-03-17T01:51:11.220Z,98298.50
2023-03-17T01:53:39.854Z,98282.94
2023-03-17T01:56:08.541Z,98277.66
2023-03-17T01:58:45.850Z,98285.81
2023-03-17T02:01:14.324Z,98274.44
2023-03-17T02:03:43.156Z,98253.59
2023-03-17T02:06:11.889Z,98255.88
2023-03-17T02:08:39.536Z,98249.19
2023-03-17T02:11:08.938Z,98248.25
2023-03-17T02:13:37.602Z,98250.84
2023-03-17T02:16:05.852Z,98256.22
2023-03-17T02:18:34.326Z,98260.34
2023-03-17T02:21:41.275Z,98253.50
2023-03-17T02:24:15.808Z,98253.13
2023-03-17T02:26:45.452Z,98254.78
2023-03-17T02:29:13.172Z,98254.00
2023-03-17T02:31:42.026Z,98259.94
2023-03-17T02:34:09.456Z,98250.47
2023-03-17T02:36:37.512Z,98244.00
2023-03-17T02:39:05.161Z,98227.31
2023-03-17T02:41:32.387Z,98225.38
2023-03-17T02:43:59.546Z,98230.09
2023-03-17T02:46:27.437Z,98224.31
2023-03-17T02:48:55.147Z,98228.81
2023-03-17T02:51:21.937Z,98233.63
2023-03-17T02:53:49.121Z,98234.22
2023-03-17T02:56:16.190Z,98232.53
2023-03-17T02:58:43.350Z,98234.66
2023-03-17T03:01:10.954Z,98232.69
2023-03-17T03:03:39.533Z,98229.94
2023-03-17T03:06:06.996Z,98223.38
2023-03-17T03:08:34.060Z,98228.59
2023-03-17T03:11:05.331Z,98221.63
2023-03-17T03:13:32.929Z,98222.84
2023-03-17T03:16:00.393Z,98215.28
2023-03-17T03:18:27.476Z,98217.06
2023-03-17T03:20:54.410Z,98223.25
2023-03-17T03:23:21.767Z,98225.28
2023-03-17T03:25:49.497Z,98224.94
2023-03-17T03:28:16.669Z,98230.00
2023-03-17T03:30:45.602Z,98229.09
2023-03-17T03:33:14.625Z,98219.41
2023-03-17T03:35:41.528Z,98217.72
2023-03-17T03:38:08.879Z,98221.47
2023-03-17T03:40:37.262Z,98217.47
2023-03-17T03:43:16.304Z,98213.50
2023-03-17T03:45:51.842Z,98216.66
2023-03-17T03:48:19.666Z,98214.97
2023-03-17T03:50:46.895Z,98207.81
2023-03-17T03:53:14.177Z,98213.41
2023-03-17T03:55:41.166Z,98201.72
2023-03-17T03:58:08.946Z,98201.72
2023-03-17T04:00:37.283Z,98212.00
2023-03-17T04:03:04.450Z,98218.84
2023-03-17T04:05:31.260Z,98220.53
2023-03-17T04:07:58.330Z,98229.78
2023-03-17T04:10:25.703Z,98232.28
2023-03-17T04:12:52.520Z,98233.47
2023-03-17T04:15:20.626Z,98234.16
2023-03-17T04:17:48.588Z,98227.06
2023-03-17T04:20:18.363Z,98215.69
2023-03-17T04:22:45.751Z,98224.16
2023-03-17T04:25:14.728Z,98221.19
2023-03-17T04:27:43.003Z,98227.22
2023-03-17T04:30:14.730Z,98226.63
2023-03-17T04:32:42.106Z,98231.78
2023-03-17T04:35:14.910Z,98231.66
2023-03-17T04:37:43.101Z,98236.34
2023-03-17T04:40:16.231Z,98233.22
2023-03-17T04:42:43.832Z,98227.56
2023-03-17T04:45:14.894Z,98236.63
2023-03-17T04:47:42.229Z,98234.09
2023-03-17T04:50:10.302Z,98232.47
2023-03-17T04:52:37.776Z,98228.19
2023-03-17T04:55:09.416Z,98224.97
2023-03-17T04:57:44.199Z,98218.56
2023-03-17T05:00:12.838Z,98219.13
2023-03-17T05:02:39.686Z,98225.28
2023-03-17T05:05:07.338Z,98220.97
2023-03-17T05:07:34.580Z,98224.13
2023-03-17T05:10:02.403Z,98219.69
2023-03-17T05:12:41.598Z,98213.06
2023-03-17T05:15:11.252Z,98222.97
2023-03-17T05:17:38.280Z,98219.69
2023-03-17T05:20:11.281Z,98222.38
2023-03-17T05:22:39.520Z,98219.00
2023-03-17T05:25:07.260Z,98226.03
2023-03-17T05:27:35.293Z,98225.34
2023-03-17T05:30:05.325Z,98232.75
2023-03-17T05:32:37.703Z,98231.31
2023-03-17T05:35:12.116Z,98232.53
2023-03-17T05:38:07.790Z,98227.03
2023-03-17T05:40:44.506Z,98218.16
2023-03-17T05:43:14.310Z,98216.13
2023-03-17T05:45:43.522Z,98217.66
2023-03-17T05:48:12.446Z,98217.72
2023-03-17T05:50:42.992Z,98214.34
2023-03-17T05:53:11.094Z,98209.78
2023-03-17T05:55:38.546Z,98207.06
2023-03-17T05:58:07.644Z,98207.00
2023-03-17T06:00:37.088Z,98200.47
2023-03-17T06:03:05.054Z,98204.09
2023-03-17T06:05:34.517Z,98212.31
2023-03-17T06:08:06.989Z,98210.19
2023-03-17T06:10:47.381Z,98210.28
2023-03-17T06:13:16.074Z,98207.06
2023-03-17T06:15:56.782Z,98193.25
2023-03-17T06:18:31.612Z,98190.78
2023-03-17T06:21:06.864Z,98189.00
2023-03-17T06:23:38.261Z,98192.94
2023-03-17T06:26:07.833Z,98189.75
2023-03-17T06:28:36.451Z,98180.66
2023-03-17T06:31:07.348Z,98183.13
2023-03-17T06:33:37.036Z,98196.97
2023-03-17T06:36:08.046Z,98213.28
2023-03-17T06:38:40.148Z,98214.06
2023-03-17T06:41:09.815Z,98217.59
2023-03-17T06:43:38.064Z,98233.03
2023-03-17T06:46:08.111Z,98235.75
2023-03-17T06:48:40.036Z,98241.28
2023-03-17T06:51:09.950Z,98240.50
2023-03-17T06:53:38.636Z,98233.44
2023-03-17T06:56:23.626Z,98236.06
2023-03-17T06:59:07.484Z,98242.97
2023-03-17T07:01:39.880Z,98239.28
2023-03-17T07:04:15.544Z,98237.66
2023-03-17T07:06:45.270Z,98244.94
2023-03-17T07:09:13.267Z,98238.13
2023-03-17T07:11:41.549Z,98234.22
2023-03-17T07:14:09.160Z,98233.59
2023-03-17T07:16:38.138Z,98236.22
2023-03-17T07:19:05.191Z,98228.41
2023-03-17T07:21:35.479Z,98215.72
2023-03-17T07:24:02.812Z,98214.19
2023-03-17T07:26:32.238Z,98221.19
2023-03-17T07:29:01.814Z,98225.59
2023-03-17T07:31:29.083Z,98234.50
2023-03-17T07:33:58.100Z,98235.81
2023-03-17T07:36:25.426Z,98231.53
2023-03-17T07:38:56.840Z,98235.75
2023-03-17T07:41:23.950Z,98232.31
2023-03-17T07:43:51.606Z,98217.09
2023-03-17T07:46:19.231Z,98216.13
2023-03-17T07:48:48.403Z,98200.47
2023-03-17T07:51:19.324Z,98206.38
2023-03-17T07:53:46.499Z,98204.78
2023-03-17T07:56:14.268Z,98205.81
2023-03-17T07:58:42.252Z,98227.34
2023-03-17T08:01:10.250Z,98224.69
2023-03-17T08:03:40.991Z,98219.44
2023-03-17T08:06:08.912Z,98205.22
2023-03-17T08:08:37.028Z,98192.41
2023-03-17T08:11:05.842Z,98198.69
2023-03-17T08:13:34.081Z,98200.28
2023-03-17T08:16:01.743Z,98188.31
2023-03-17T08:18:29.036Z,98194.25
2023-03-17T08:20:56.728Z,98194.78
2023-03-17T08:23:23.759Z,98206.94
2023-03-17T08:25:58.941Z,98198.44
2023-03-17T08:28:27.449Z,98197.72
2023-03-17T08:30:55.249Z,98190.94
2023-03-17T08:33:25.553Z,98177.47
2023-03-17T08:35:53.566Z,98174.97
2023-03-17T08:38:21.044Z,98174.25
2023-03-17T08:40:53.030Z,98172.81
2023-03-17T08:43:20.204Z,98185.47
2023-03-17T08:45:47.305Z,98172.28
2023-03-17T08:48:15.444Z,98175.41
2023-03-17T08:50:42.911Z,98186.00
2023-03-17T08:53:11.156Z,98206.44
2023-03-17T08:55:38.299Z,98226.25
2023-03-17T08:58:06.291Z,98223.53
2023-03-17T09:00:34.918Z,98210.16
2023-03-17T09:03:04.008Z,98207.47
2023-03-17T09:05:32.015Z,98207.69
2023-03-17T09:07:59.844Z,98202.06
2023-03-17T09:10:27.369Z,98184.19
2023-03-17T09:12:55.071Z,98178.22
2023-03-17T09:15:22.338Z,98184.63
2023-03-17T09:17:52.281Z,98177.91
2023-03-17T09:20:19.759Z,98164.16
2023-03-17T09:22:49.045Z,98156.88
2023-03-17T09:25:16.432Z,98148.00
2023-03-17T09:27:43.897Z,98155.66
2023-03-17T09:30:13.799Z,98155.47
2023-03-17T09:32:41.138Z,98144.81
2023-03-17T09:35:08.573Z,98155.16
2023-03-17T09:37:35.794Z,98165.31
2023-03-17T09:40:03.866Z,98158.13
2023-03-17T09:42:44.059Z,98164.38
2023-03-17T09:45:22.964Z,98148.38
2023-03-17T09:48:34.764Z,98148.59
2023-03-17T09:51:10.753Z,98144.50
2023-03-17T09:53:47.416Z,98142.69
2023-03-17T09:56:18.400Z,98137.53
2023-03-17T09:59:04.810Z,98127.66
2023-03-17T10:01:33.826Z,98130.56
2023-03-17T10:04:02.686Z,98142.31
2023-03-17T10:06:37.084Z,98144.53
2023-03-17T10:09:17.479Z,98141.06
2023-03-17T10:11:58.698Z,98126.72
2023-03-17T10:14:35.403Z,98126.56
2023-03-17T10:17:14.385Z,98127.53
2023-03-17T10:19:57.382Z,98120.28
2023-03-17T10:22:59.148Z,98117.53
2023-03-17T10:25:32.938Z,98102.84
2023-03-17T10:28:17.802Z,98107.91
2023-03-17T10:30:44.879Z,98117.84
2023-03-17T10:33:12.662Z,98116.91
2023-03-17T10:35:44.820Z,98109.75
2023-03-17T10:38:19.475Z,98093.34
2023-03-17T10:40:56.447Z,98099.38
2023-03-17T10:43:29.408Z,98096.28
2023-03-17T10:46:05.136Z,98094.53
2023-03-17T10:48:38.311Z,98089.34
2023-03-17T10:51:10.031Z,98090.50
2023-03-17T10:53:46.640Z,98083.94
2023-03-17T10:56:28.561Z,98077.44
2023-03-17T10:58:56.314Z,98084.09
2023-03-17T11:01:41.463Z,98075.53
2023-03-17T11:04:47.240Z,98077.81
2023-03-17T11:07:21.492Z,98079.00
2023-03-17T11:10:01.881Z,98068.41
2023-03-17T11:12:40.227Z,98055.03
2023-03-17T11:15:13.333Z,98051.28
2023-03-17T11:17:56.878Z,98064.94
2023-03-17T11:20:50.002Z,98056.16
2023-03-17T11:23:42.684Z,98054.38
2023-03-17T11:26:41.450Z,98055.31
2023-03-17T11:29:24.708Z,98049.06
2023-03-17T11:32:01.563Z,98037.75
2023-03-17T11:34:58.610Z,98042.75
2023-03-17T11:37:47.354Z,98045.94
2023-03-17T11:40:38.901Z,98045.81
2023-03-17T11:43:31.623Z,98042.81
2023-03-17T11:46:44.193Z,98038.44
2023-03-17T11:49:28.698Z,98029.34
2023-03-17T11:52:25.027Z,98025.94
2023-03-17T11:55:08.174Z,98028.53
2023-03-17T11:58:12.739Z,98021.59
2023-03-17T12:00:55.016Z,98014.91
2023-03-17T12:03:26.784Z,98015.56
2023-03-17T12:05:58.783Z,98018.66
2023-03-17T12:08:35.701Z,98013.69
2023-03-17T12:11:10.906Z,98014.53
2023-03-17T12:13:52.839Z,98012.28
2023-03-17T12:16:41.712Z,98001.78
2023-03-17T12:19:30.923Z,98002.78
2023-03-17T12:22:22.801Z,98006.25
2023-03-17T12:25:05.622Z,97994.50
2023-03-17T12:27:39.607Z,97997.19
2023-03-17T12:30:27.207Z,97996.06
2023-03-17T12:33:01.203Z,97988.38
2023-03-17T12:35:34.229Z,97997.56
2023-03-17T12:38:27.320Z,97989.31
2023-03-17T12:41:25.369Z,97994.16
2023-03-17T12:44:02.109Z,97990.72
2023-03-17T12:47:01.876Z,97985.66
2023-03-17T12:49:45.553Z,97988.75
2023-03-17T12:52:26.009Z,97983.31
2023-03-17T12:54:57.863Z,97988.06
2023-03-17T12:57:31.167Z,97974.75
2023-03-17T13:00:17.676Z,97971.09
2023-03-17T13:03:23.847Z,97972.84
2023-03-17T13:06:01.620Z,97980.25
2023-03-17T13:08:40.896Z,97979.22
2023-03-17T13:11:21.680Z,97980.84
2023-03-17T13:13:59.473Z,97980.13
2023-03-17T13:16:41.897Z,97960.13
2023-03-17T13:19:21.211Z,97960.25
2023-03-17T13:21:57.537Z,97946.59
2023-03-17T13:24:53.800Z,97932.06
2023-03-17T13:27:35.032Z,97921.44
2023-03-17T13:30:26.893Z,97936.09
2023-03-17T13:33:05.115Z,97928.59
2023-03-17T13:36:05.229Z,97923.69
2023-03-17T13:38:35.792Z,97923.28
2023-03-17T13:41:13.919Z,97924.88
2023-03-17T13:44:24.567Z,97925.50
2023-03-17T13:46:52.267Z,97930.06
2023-03-17T13:49:19.526Z,97933.47
2023-03-17T13:52:00.243Z,97926.81
2023-03-17T13:54:31.031Z,97921.06
2023-03-17T13:57:37.847Z,97915.50
2023-03-17T14:00:07.297Z,97913.00
2023-03-17T14:02:38.598Z,97912.16
2023-03-17T14:05:23.235Z,97904.75
2023-03-17T14:08:01.839Z,97904.72
2023-03-17T14:10:36.247Z,97896.78
2023-03-17T14:13:26.225Z,97893.59
2023-03-17T14:16:23.670Z,97894.88
2023-03-17T14:18:57.613Z,97894.28
2023-03-17T14:21:39.825Z,97892.75
2023-03-17T14:24:34.401Z,97887.19
2023-03-17T14:27:11.466Z,97889.13
2023-03-17T14:29:42.505Z,97885.31
2023-03-17T14:32:16.105Z,97890.63
2023-03-17T14:34:59.482Z,97881.84
2023-03-17T14:37:29.207Z,97878.72
2023-03-17T14:39:59.141Z,97880.00
2023-03-17T14:42:31.447Z,97879.03
2023-03-17T14:45:06.646Z,97874.41
2023-03-17T14:47:41.673Z,97870.72
2023-03-17T14:50:18.316Z,97876.63
2023-03-17T14:52:45.730Z,97874.44
2023-03-17T14:55:16.016Z,97868.38
2023-03-17T14:57:51.638Z,97859.66
2023-03-17T15:00:36.391Z,97861.75
2023-03-17T15:03:18.100Z,97859.94
2023-03-17T15:05:47.366Z,97861.25
2023-03-17T15:08:41.133Z,97855.97
2023-03-17T15:11:18.753Z,97861.44
2023-03-17T15:13:46.724Z,97858.84
2023-03-17T15:16:24.465Z,97857.75
2023-03-17T15:19:03.499Z,97851.84
2023-03-17T15:21:42.335Z,97855.53
2023-03-17T15:24:35.284Z,97856.09
2023-03-17T15:27:08.147Z,97851.88
2023-03-17T15:29:51.460Z,97848.19
2023-03-17T15:32:24.723Z,97844.75
2023-03-17T15:34:54.956Z,97849.53
2023-03-17T15:37:31.728Z,97840.94
2023-03-17T15:40:03.432Z,97842.28
2023-03-17T15:42:34.575Z,97847.16
2023-03-17T15:45:06.797Z,97847.09
2023-03-17T15:47:37.510Z,97846.38
2023-03-17T15:50:24.568Z,97846.25
2023-03-17T15:53:06.154Z,97823.91
2023-03-17T15:55:34.724Z,97840.19
2023-03-17T15:58:06.544Z,97847.25
2023-03-17T16:00:35.180Z,97844.97
2023-03-17T16:03:26.315Z,97843.06
2023-03-17T16:05:54.229Z,97840.84
2023-03-17T16:08:22.563Z,97832.22
2023-03-17T16:10:50.928Z,97834.84
2023-03-17T16:13:18.851Z,97840.53
2023-03-17T16:15:52.986Z,97837.84
2023-03-17T16:18:29.321Z,97831.53
2023-03-17T16:20:57.008Z,97832.28
2023-03-17T16:23:30.405Z,97826.28
2023-03-17T16:26:11.685Z,97831.72
2023-03-17T16:28:43.078Z,97836.19
2023-03-17T16:31:26.141Z,97837.63
2023-03-17T16:33:54.539Z,97834.00
2023-03-17T16:36:24.256Z,97835.72
2023-03-17T16:38:52.347Z,97831.16
2023-03-17T16:41:27.317Z,97837.09
2023-03-17T16:44:00.368Z,97840.84
2023-03-17T16:46:34.578Z,97843.13
2023-03-17T16:49:04.009Z,97837.84
2023-03-17T16:51:32.275Z,97842.84
2023-03-17T16:54:00.119Z,97843.66
2023-03-17T16:56:33.727Z,97843.56
2023-03-17T16:59:01.945Z,97844.34
2023-03-17T17:01:29.631Z,97852.47
2023-03-17T17:03:58.252Z,97845.81
2023-03-17T17:06:25.772Z,97840.13
2023-03-17T17:08:53.609Z,97843.44
2023-03-17T17:11:24.088Z,97850.47
2023-03-17T17:13:51.895Z,97858.75
2023-03-17T17:16:25.037Z,97862.91
2023-03-17T17:18:53.231Z,97854.25
2023-03-17T17:21:20.419Z,97864.25
2023-03-17T17:23:47.494Z,97862.47
2023-03-17T17:26:14.798Z,97855.63
2023-03-17T17:28:41.824Z,97848.31
2023-03-17T17:31:09.434Z,97854.06
2023-03-17T17:33:40.438Z,97861.09
2023-03-17T17:36:18.872Z,97864.28
2023-03-17T17:38:46.754Z,97854.06
2023-03-17T17:41:14.398Z,97859.03
2023-03-17T17:43:41.718Z,97863.03
2023-03-17T17:46:17.797Z,97868.75
2023-03-17T17:48:45.593Z,97867.00
2023-03-17T17:51:12.764Z,97871.56
2023-03-17T17:53:42.179Z,97867.75
2023-03-17T17:56:17.444Z,97871.56
2023-03-17T17:58:45.653Z,97867.78
2023-03-17T18:01:21.278Z,97864.13
2023-03-17T18:03:49.433Z,97860.38
2023-03-17T18:06:19.977Z,97861.56
2023-03-17T18:08:48.967Z,97854.22
2023-03-17T18:11:20.888Z,97855.75
2023-03-17T18:13:47.942Z,97867.81
2023-03-17T18:16:19.830Z,97859.25
2023-03-17T18:18:47.413Z,97872.91
2023-03-17T18:21:14.602Z,97870.94
2023-03-17T18:23:47.572Z,97865.59
2023-03-17T18:26:18.492Z,97866.78
2023-03-17T18:28:45.646Z,97868.66
2023-03-17T18:31:24.306Z,97859.66
2023-03-17T18:33:57.727Z,97856.84
2023-03-17T18:36:25.675Z,97856.03
2023-03-17T18:38:53.523Z,97848.88
2023-03-17T18:41:24.488Z,97848.44
2023-03-17T18:43:52.630Z,97848.13
2023-03-17T18:46:20.193Z,97850.19
2023-03-17T18:48:47.183Z,97854.78
2023-03-17T18:51:16.820Z,97849.34
2023-03-17T18:53:45.969Z,97846.53
2023-03-17T18:56:13.896Z,97848.06
2023-03-17T18:58:41.783Z,97843.19
2023-03-17T19:01:10.125Z,97848.38
2023-03-17T19:03:39.741Z,97845.88
2023-03-17T19:06:17.237Z,97843.63
2023-03-17T19:08:44.880Z,97840.13
2023-03-17T19:11:14.948Z,97836.03
2023-03-17T19:13:43.859Z,97838.66
2023-03-17T19:16:13.142Z,97834.31
2023-03-17T19:18:42.179Z,97838.66
2023-03-17T19:21:11.424Z,97835.16
2023-03-17T19:23:39.617Z,97832.91
2023-03-17T19:26:08.267Z,97835.72
2023-03-17T19:28:35.692Z,97830.94
2023-03-17T19:31:04.162Z,97838.53
2023-03-17T19:33:35.055Z,97841.19
2023-03-17T19:36:08.202Z,97845.38
2023-03-17T19:38:35.850Z,97847.63
2023-03-17T19:41:07.318Z,97853.22
2023-03-17T19:43:40.815Z,97838.09
2023-03-17T19:46:11.578Z,97852.81
2023-03-17T19:48:40.709Z,97845.53
2023-03-17T19:51:08.259Z,97843.56
2023-03-17T19:53:35.953Z,97844.78
2023-03-17T19:56:05.161Z,97843.38
2023-03-17T19:58:32.735Z,97839.59
2023-03-17T20:00:59.819Z,97843.75
2023-03-17T20:03:27.206Z,97845.88
2023-03-17T20:05:54.310Z,97844.34
2023-03-17T20:08:22.541Z,97849.56
2023-03-17T20:10:55.885Z,97850.09
2023-03-17T20:13:23.259Z,97846.75
2023-03-17T20:15:51.818Z,97845.88
2023-03-17T20:18:20.689Z,97852.31
2023-03-17T20:20:53.388Z,97854.00
2023-03-17T20:23:21.962Z,97847.81
2023-03-17T20:25:50.517Z,97851.94
2023-03-17T20:28:20.125Z,97851.44
2023-03-17T20:30:48.320Z,97860.56
2023-03-17T20:33:15.821Z,97853.25
2023-03-17T20:35:47.174Z,97855.81
2023-03-17T20:38:25.706Z,97854.00
2023-03-17T20:40:53.605Z,97851.94
2023-03-17T20:43:20.987Z,97846.72
2023-03-17T20:45:51.355Z,97850.53
2023-03-17T20:48:18.696Z,97844.22
2023-03-17T20:50:51.172Z,97848.41
2023-03-17T20:53:22.016Z,97839.19
2023-03-17T20:55:51.079Z,97836.56
2023-03-17T20:58:20.214Z,97834.03
2023-03-17T21:00:49.545Z,97840.56
2023-03-17T21:03:17.908Z,97844.22
2023-03-17T21:05:46.336Z,97842.13
2023-03-17T21:08:13.632Z,97844.81
2023-03-17T21:10:40.928Z,97843.66
2023-03-17T21:13:09.122Z,97843.59
2023-03-17T21:15:36.252Z,97839.47
2023-03-17T21:18:03.470Z,97845.19
2023-03-17T21:20:30.758Z,97845.88
2023-03-17T21:22:59.759Z,97851.91
2023-03-17T21:25:27.048Z,97850.72
2023-03-17T21:27:53.975Z,97844.06
2023-03-17T21:30:21.623Z,97846.22
2023-03-17T21:32:54.705Z,97846.88
2023-03-17T21:35:24.109Z,97841.38
2023-03-17T21:37:51.891Z,97840.59
2023-03-17T21:40:18.796Z,97836.88
2023-03-17T21:42:46.060Z,97838.34
2023-03-17T21:45:13.833Z,97837.75
2023-03-17T21:47:41.414Z,97830.72
2023-03-17T21:50:09.079Z,97837.56
2023-03-17T21:52:37.345Z,97838.81
2023-03-17T21:55:07.560Z,97841.38
2023-03-17T21:57:34.639Z,97842.88
2023-03-17T22:00:01.732Z,97845.06
2023-03-17T22:02:29.023Z,97844.91
2023-03-17T22:04:57.667Z,97851.88
2023-03-17T22:07:24.433Z,97854.28
2023-03-17T22:09:58.270Z,97847.84
2023-03-17T22:12:25.501Z,97848.81
2023-03-17T22:14:52.926Z,97855.94
2023-03-17T22:17:22.631Z,97852.34
2023-03-17T22:19:49.617Z,97856.59
2023-03-17T22:22:16.925Z,97856.03
2023-03-17T22:24:43.888Z,97848.59
2023-03-17T22:27:18.410Z,97855.44
2023-03-17T22:29:46.803Z,97858.03
2023-03-17T22:32:14.045Z,97856.72
2023-03-17T22:34:41.646Z,97862.13
2023-03-17T22:37:08.584Z,97861.31
2023-03-17T22:39:35.549Z,97851.84
2023-03-17T22:42:03.165Z,97860.94
2023-03-17T22:44:30.128Z,97855.47
2023-03-17T22:46:57.528Z,97860.97
2023-03-17T22:49:24.462Z,97860.13
2023-03-17T22:51:51.436Z,97861.78
2023-03-17T22:54:19.268Z,97869.97
2023-03-17T22:56:46.586Z,97856.31
2023-03-17T22:59:15.318Z,97854.97
2023-03-17T23:01:42.266Z,97857.13
2023-03-17T23:04:09.296Z,97851.25
2023-03-17T23:06:37.076Z,97839.59
2023-03-17T23:09:04.912Z,97842.00
2023-03-17T23:11:32.589Z,97845.84
2023-03-17T23:13:59.529Z,97850.97
2023-03-17T23:16:27.500Z,97837.81
2023-03-17T23:18:54.525Z,97842.69
2023-03-17T23:21:41.519Z,97844.72
2023-03-17T23:24:08.936Z,97835.84
2023-03-17T23:26:37.316Z,97846.44
2023-03-17T23:29:06.220Z,97848.75
2023-03-17T23:31:34.326Z,97843.69
2023-03-17T23:34:01.259Z,97840.31
2023-03-17T23:36:28.412Z,97842.94
2023-03-17T23:38:55.990Z,97844.63
2023-03-17T23:41:23.035Z,97850.03
2023-03-17T23:43:49.948Z,97842.97
2023-03-17T23:46:21.031Z,97851.88
2023-03-17T23:48:49.867Z,97847.41
2023-03-17T23:51:18.030Z,97849.34
2023-03-17T23:53:46.550Z,97849.69
2023-03-17T23:56:13.783Z,97846.69
2023-03-17T23:58:43.372Z,97849.31
